Time;durP1;ratioP1;P1;durP2;ratioP2;P2;SDS_P1;SDS_P2;PMS_P1;PMS_P2;Temp;Humidity;BMP_temperature;BMP_pressure;BME280_temperature;BME280_humidity;BME280_pressure;Samples;Min_cycle;Max_cycle;Signal;HPM_P1;HPM_P2
2023/06/25 00:00:51;;;;;;;3.78;3.58;;;;;;;;;;5106209;28;20584;-75
2023/06/25 00:03:18;;;;;;;5.05;4.15;;;;;;;;;;5104825;28;20675;-74
2023/06/25 00:05:46;;;;;;;4.30;4.00;;;;;;;;;;5087209;28;20222;-75
2023/06/25 00:08:13;;;;;;;4.85;4.45;;;;;;;;;;5087689;28;20593;-75
2023/06/25 00:10:41;;;;;;;4.82;4.32;;;;;;;;;;5105184;28;20216;-75
2023/06/25 00:13:08;;;;;;;4.13;3.83;;;;;;;;;;5108065;28;20245;-75
2023/06/25 00:15:35;;;;;;;4.60;4.30;;;;;;;;;;5086942;28;20256;-75
2023/06/25 00:18:02;;;;;;;5.13;4.72;;;;;;;;;;5086441;28;20210;-77
2023/06/25 00:20:29;;;;;;;4.28;3.97;;;;;;;;;;5088116;28;20271;-78
2023/06/25 00:22:57;;;;;;;6.38;5.05;;;;;;;;;;5089160;28;20263;-77
2023/06/25 00:25:26;;;;;;;4.45;3.90;;;;;;;;;;5093557;28;20665;-76
2023/06/25 00:27:57;;;;;;;5.60;4.43;;;;;;;;;;5088023;28;20226;-76
2023/06/25 00:30:25;;;;;;;4.63;4.18;;;;;;;;;;5100037;28;20202;-77
2023/06/25 00:32:56;;;;;;;5.28;4.78;;;;;;;;;;5107986;28;20213;-76
2023/06/25 00:35:24;;;;;;;4.53;4.15;;;;;;;;;;5098055;28;20259;-77
2023/06/25 00:37:56;;;;;;;4.88;4.38;;;;;;;;;;5091591;28;20206;-77
2023/06/25 00:40:25;;;;;;;4.25;3.95;;;;;;;;;;5106419;28;20202;-77
2023/06/25 00:42:56;;;;;;;4.95;4.60;;;;;;;;;;5112003;28;20216;-77
2023/06/25 00:45:25;;;;;;;4.63;4.10;;;;;;;;;;5098576;28;20210;-76
2023/06/25 00:47:52;;;;;;;4.97;4.47;;;;;;;;;;5091547;28;20289;-76
2023/06/25 00:50:21;;;;;;;4.82;4.13;;;;;;;;;;5091570;28;20225;-77
2023/06/25 00:52:48;;;;;;;4.93;4.35;;;;;;;;;;5091665;28;20665;-76
2023/06/25 00:55:15;;;;;;;5.10;4.57;;;;;;;;;;5110713;28;20214;-77
2023/06/25 00:57:44;;;;;;;5.20;4.70;;;;;;;;;;5110649;28;20294;-77
2023/06/25 01:00:14;;;;;;;4.68;4.35;;;;;;;;;;5098403;28;20214;-76
2023/06/25 01:02:44;;;;;;;4.68;4.35;;;;;;;;;;5088604;28;20210;-77
2023/06/25 01:05:14;;;;;;;4.38;3.97;;;;;;;;;;5093315;28;20260;-77
2023/06/25 01:07:44;;;;;;;4.47;4.18;;;;;;;;;;5087722;28;20206;-76
2023/06/25 01:10:11;;;;;;;5.13;4.57;;;;;;;;;;5091421;28;20250;-77
2023/06/25 01:12:38;;;;;;;5.55;5.05;;;;;;;;;;5091114;28;20623;-77
2023/06/25 01:15:08;;;;;;;5.88;4.97;;;;;;;;;;5106389;28;20292;-77
2023/06/25 01:17:36;;;;;;;7.03;5.07;;;;;;;;;;5110908;28;20788;-77
2023/06/25 01:20:05;;;;;;;5.00;4.60;;;;;;;;;;5111084;28;20232;-77
2023/06/25 01:22:33;;;;;;;4.80;4.40;;;;;;;;;;5111358;28;20229;-77
2023/06/25 01:25:01;;;;;;;5.60;4.90;;;;;;;;;;5111210;28;20214;-77
2023/06/25 01:27:28;;;;;;;4.80;4.40;;;;;;;;;;5091947;28;20194;-76
2023/06/25 01:29:55;;;;;;;4.47;4.13;;;;;;;;;;5091032;28;20202;-76
2023/06/25 01:32:23;;;;;;;4.88;4.47;;;;;;;;;;5093445;28;20209;-76
2023/06/25 01:34:51;;;;;;;5.10;4.60;;;;;;;;;;5092224;28;20238;-74
2023/06/25 01:37:18;;;;;;;5.20;4.80;;;;;;;;;;5106581;28;20940;-76
2023/06/25 01:39:49;;;;;;;5.70;5.20;;;;;;;;;;5110922;28;20225;-76
2023/06/25 01:42:16;;;;;;;5.82;5.30;;;;;;;;;;5111074;28;20304;-76
2023/06/25 01:44:43;;;;;;;5.18;4.70;;;;;;;;;;5110566;28;20237;-76
2023/06/25 01:47:10;;;;;;;4.90;4.50;;;;;;;;;;5105113;28;20673;-75
2023/06/25 01:49:37;;;;;;;5.78;4.72;;;;;;;;;;5090592;28;20214;-76
2023/06/25 01:52:04;;;;;;;5.22;4.82;;;;;;;;;;5090528;28;20221;-75
2023/06/25 01:54:31;;;;;;;5.60;4.88;;;;;;;;;;5090415;28;20284;-76
2023/06/25 01:57:00;;;;;;;5.00;4.50;;;;;;;;;;5090245;28;20275;-76
2023/06/25 01:59:28;;;;;;;5.07;4.65;;;;;;;;;;5106826;28;20218;-76
2023/06/25 02:01:55;;;;;;;5.07;4.68;;;;;;;;;;5109838;28;20264;-76
2023/06/25 02:04:22;;;;;;;5.28;4.78;;;;;;;;;;5109009;28;20272;-76
2023/06/25 02:06:49;;;;;;;8.20;4.97;;;;;;;;;;5110568;28;20209;-76
2023/06/25 02:09:16;;;;;;;6.13;4.95;;;;;;;;;;5096632;28;20206;-76
2023/06/25 02:11:43;;;;;;;4.97;4.40;;;;;;;;;;5090154;28;20202;-75
2023/06/25 02:14:11;;;;;;;5.32;4.90;;;;;;;;;;5089933;28;20256;-75
2023/06/25 02:16:38;;;;;;;5.28;4.82;;;;;;;;;;5089898;28;20231;-75
2023/06/25 02:19:05;;;;;;;5.32;4.75;;;;;;;;;;5099101;28;20201;-75
2023/06/25 02:21:32;;;;;;;5.10;4.68;;;;;;;;;;5099915;28;20778;-76
2023/06/25 02:23:59;;;;;;;5.25;4.78;;;;;;;;;;5110164;28;20206;-76
2023/06/25 02:26:26;;;;;;;9.93;4.88;;;;;;;;;;5096389;28;20202;-75
2023/06/25 02:28:53;;;;;;;5.47;4.78;;;;;;;;;;5090948;28;20199;-76
2023/06/25 02:31:22;;;;;;;5.38;4.88;;;;;;;;;;5089524;28;20669;-76
2023/06/25 02:33:49;;;;;;;5.32;4.82;;;;;;;;;;5089540;28;20209;-75
2023/06/25 02:36:16;;;;;;;5.28;4.85;;;;;;;;;;5094555;28;20201;-75
2023/06/25 02:38:43;;;;;;;6.20;4.55;;;;;;;;;;5109356;28;20209;-76
2023/06/25 02:41:10;;;;;;;5.47;4.97;;;;;;;;;;5090051;28;20202;-76
2023/06/25 02:43:37;;;;;;;4.80;4.40;;;;;;;;;;5089066;28;20240;-75
2023/06/25 02:46:04;;;;;;;4.90;4.50;;;;;;;;;;5089375;28;20214;-76
2023/06/25 02:48:32;;;;;;;6.90;5.03;;;;;;;;;;5089295;28;20210;-76
2023/06/25 02:50:59;;;;;;;5.13;4.72;;;;;;;;;;5102561;28;20205;-74
2023/06/25 02:53:27;;;;;;;7.03;4.47;;;;;;;;;;5088972;28;20607;-74
2023/06/25 02:55:54;;;;;;;5.07;4.68;;;;;;;;;;5089120;28;20221;-75
2023/06/25 02:58:21;;;;;;;5.55;4.88;;;;;;;;;;5097534;28;20283;-75
2023/06/25 03:00:48;;;;;;;6.05;5.10;;;;;;;;;;5098592;28;20197;-76
2023/06/25 03:03:15;;;;;;;5.35;4.85;;;;;;;;;;5109395;28;20220;-75
2023/06/25 03:05:44;;;;;;;4.82;4.53;;;;;;;;;;5108992;28;20245;-75
2023/06/25 03:08:11;;;;;;;5.22;4.82;;;;;;;;;;5102392;28;20201;-76
2023/06/25 03:10:38;;;;;;;5.43;4.93;;;;;;;;;;5092556;28;20586;-75
2023/06/25 03:13:05;;;;;;;5.60;5.07;;;;;;;;;;5089874;28;20211;-75
2023/06/25 03:15:32;;;;;;;6.38;5.00;;;;;;;;;;5088994;28;20301;-75
2023/06/25 03:17:59;;;;;;;4.80;4.40;;;;;;;;;;5088415;28;20234;-76
2023/06/25 03:20:26;;;;;;;5.78;4.97;;;;;;;;;;5093801;28;20205;-75
2023/06/25 03:22:55;;;;;;;4.95;4.53;;;;;;;;;;5109224;28;20213;-75
2023/06/25 03:25:22;;;;;;;5.53;4.82;;;;;;;;;;5102489;28;20206;-76
2023/06/25 03:27:49;;;;;;;4.70;4.30;;;;;;;;;;5088488;28;20255;-75
2023/06/25 03:30:16;;;;;;;4.93;4.53;;;;;;;;;;5092239;28;20202;-77
2023/06/25 03:32:44;;;;;;;5.07;4.68;;;;;;;;;;5108788;28;20209;-76
2023/06/25 03:35:11;;;;;;;5.90;4.75;;;;;;;;;;5108141;28;20228;-76
2023/06/25 03:37:38;;;;;;;4.70;4.30;;;;;;;;;;5109126;28;20756;-76
2023/06/25 03:40:07;;;;;;;5.00;4.60;;;;;;;;;;5103975;28;20210;-75
2023/06/25 03:42:34;;;;;;;4.45;3.83;;;;;;;;;;5089583;28;20214;-77
2023/06/25 03:45:01;;;;;;;5.47;4.97;;;;;;;;;;5088319;28;20214;-77
2023/06/25 03:47:31;;;;;;;5.15;4.70;;;;;;;;;;5088553;28;20213;-77
2023/06/25 03:49:58;;;;;;;4.95;4.57;;;;;;;;;;5104314;28;20208;-76
2023/06/25 03:52:25;;;;;;;5.35;4.95;;;;;;;;;;5107518;28;20202;-77
2023/06/25 03:54:52;;;;;;;4.45;4.10;;;;;;;;;;5104200;28;20270;-76
2023/06/25 03:57:22;;;;;;;5.47;4.97;;;;;;;;;;5108789;28;20281;-76
2023/06/25 03:59:49;;;;;;;5.68;5.03;;;;;;;;;;5108622;28;20205;-76
2023/06/25 04:02:16;;;;;;;5.22;4.78;;;;;;;;;;5094004;28;20205;-76
2023/06/25 04:04:43;;;;;;;5.28;4.78;;;;;;;;;;5088300;28;20574;-75
2023/06/25 04:07:10;;;;;;;6.72;4.65;;;;;;;;;;5088134;28;20297;-76
2023/06/25 04:09:37;;;;;;;4.63;4.20;;;;;;;;;;5093980;28;20202;-76
2023/06/25 04:12:04;;;;;;;5.53;4.70;;;;;;;;;;5094003;28;20695;-76
2023/06/25 04:14:33;;;;;;;4.72;4.20;;;;;;;;;;5107505;28;20229;-76
2023/06/25 04:17:00;;;;;;;5.05;4.15;;;;;;;;;;5112464;28;20225;-76
2023/06/25 04:19:29;;;;;;;4.72;4.30;;;;;;;;;;5111216;28;20205;-76
2023/06/25 04:21:56;;;;;;;4.60;4.20;;;;;;;;;;5108418;28;20219;-76
2023/06/25 04:24:23;;;;;;;4.88;4.38;;;;;;;;;;5112194;28;20606;-77
2023/06/25 04:26:50;;;;;;;4.50;4.20;;;;;;;;;;5113051;28;20216;-77
2023/06/25 04:29:17;;;;;;;4.82;4.43;;;;;;;;;;5112286;28;20303;-76
2023/06/25 04:31:45;;;;;;;4.15;3.92;;;;;;;;;;5112040;28;20842;-76
2023/06/25 04:34:12;;;;;;;5.35;3.67;;;;;;;;;;5110309;28;20323;-76
2023/06/25 04:36:39;;;;;;;4.15;3.85;;;;;;;;;;5103822;28;20217;-76
2023/06/25 04:39:07;;;;;;;4.32;3.97;;;;;;;;;;5092747;28;20222;-76
2023/06/25 04:41:34;;;;;;;4.15;3.80;;;;;;;;;;5088598;28;20210;-78
2023/06/25 04:44:01;;;;;;;4.25;3.88;;;;;;;;;;5106925;28;20589;-76
2023/06/25 04:46:28;;;;;;;3.90;3.58;;;;;;;;;;5098163;28;20247;-77
2023/06/25 04:48:56;;;;;;;4.03;3.72;;;;;;;;;;5092136;28;20202;-76
2023/06/25 04:51:23;;;;;;;4.20;3.90;;;;;;;;;;5092256;28;20691;-77
2023/06/25 04:53:50;;;;;;;4.30;3.97;;;;;;;;;;5102462;28;20217;-77
2023/06/25 04:56:17;;;;;;;4.07;3.30;;;;;;;;;;5112562;28;20213;-78
2023/06/25 04:58:44;;;;;;;3.67;3.38;;;;;;;;;;5112446;28;20287;-78
2023/06/25 05:01:11;;;;;;;3.53;3.35;;;;;;;;;;5111202;28;20209;-77
2023/06/25 05:03:38;;;;;;;3.08;2.92;;;;;;;;;;5110578;28;20202;-77
2023/06/25 05:06:07;;;;;;;4.22;3.72;;;;;;;;;;5111214;28;20202;-78
2023/06/25 05:08:34;;;;;;;4.57;4.18;;;;;;;;;;5111672;28;20205;-78
2023/06/25 05:11:01;;;;;;;3.45;3.25;;;;;;;;;;5112269;28;20202;-78
2023/06/25 05:13:30;;;;;;;4.22;3.45;;;;;;;;;;5106699;28;20213;-78
2023/06/25 05:15:57;;;;;;;3.70;3.40;;;;;;;;;;5091870;28;20245;-78
2023/06/25 05:18:24;;;;;;;3.67;3.40;;;;;;;;;;5091789;28;20317;-78
2023/06/25 05:20:51;;;;;;;4.07;3.38;;;;;;;;;;5089552;28;20275;-78
2023/06/25 05:23:20;;;;;;;3.45;3.25;;;;;;;;;;5091816;28;20214;-78
2023/06/25 05:25:47;;;;;;;3.83;3.45;;;;;;;;;;5091396;28;20228;-78
2023/06/25 05:28:14;;;;;;;3.92;3.53;;;;;;;;;;5091323;28;20203;-78
2023/06/25 05:30:41;;;;;;;3.20;3.00;;;;;;;;;;5092560;28;20263;-78
2023/06/25 05:33:08;;;;;;;3.50;3.33;;;;;;;;;;5092631;28;20283;-80
2023/06/25 05:35:35;;;;;;;3.38;3.17;;;;;;;;;;5092775;28;20644;-79
2023/06/25 05:38:02;;;;;;;3.58;3.40;;;;;;;;;;5111316;28;20581;-74
2023/06/25 05:40:31;;;;;;;2.92;2.72;;;;;;;;;;5111619;28;20231;-77
2023/06/25 05:42:58;;;;;;;3.38;3.17;;;;;;;;;;5107077;28;20205;-77
2023/06/25 05:45:25;;;;;;;3.35;3.05;;;;;;;;;;5125901;27;20265;-76
2023/06/25 05:47:52;;;;;;;3.17;2.97;;;;;;;;;;5131381;27;20216;-75
2023/06/25 05:50:19;;;;;;;3.10;2.90;;;;;;;;;;5110602;28;20205;-75
2023/06/25 05:52:46;;;;;;;4.72;2.90;;;;;;;;;;5101866;28;20934;-75
2023/06/25 05:55:13;;;;;;;3.45;3.15;;;;;;;;;;5090365;28;20272;-75
2023/06/25 05:57:41;;;;;;;2.95;2.85;;;;;;;;;;5094912;28;20218;-75
2023/06/25 06:00:09;;;;;;;2.78;2.67;;;;;;;;;;5110408;28;20770;-75
2023/06/25 06:02:36;;;;;;;2.58;2.47;;;;;;;;;;5109223;28;20739;-75
2023/06/25 06:05:04;;;;;;;3.20;2.90;;;;;;;;;;5099307;28;20618;-75
2023/06/25 06:07:31;;;;;;;3.28;2.97;;;;;;;;;;5090547;28;20912;-76
2023/06/25 06:09:58;;;;;;;3.13;2.92;;;;;;;;;;5090840;28;20216;-75
2023/06/25 06:12:25;;;;;;;4.60;2.88;;;;;;;;;;5100864;28;20297;-75
2023/06/25 06:14:55;;;;;;;3.30;3.10;;;;;;;;;;5110910;28;20206;-76
2023/06/25 06:17:22;;;;;;;2.92;2.80;;;;;;;;;;5104204;28;20202;-74
2023/06/25 06:19:49;;;;;;;3.42;3.15;;;;;;;;;;5098429;28;20296;-74
2023/06/25 06:22:17;;;;;;;2.72;2.58;;;;;;;;;;5103520;28;20221;-74
2023/06/25 06:24:44;;;;;;;3.03;2.70;;;;;;;;;;5091830;28;20636;-74
2023/06/25 06:27:11;;;;;;;3.05;2.78;;;;;;;;;;5090370;28;20214;-74
2023/06/25 06:29:38;;;;;;;2.80;2.70;;;;;;;;;;5090298;28;20199;-72
2023/06/25 06:32:08;;;;;;;4.13;2.92;;;;;;;;;;5091146;28;20206;-74
2023/06/25 06:34:35;;;;;;;2.92;2.72;;;;;;;;;;5097213;28;20213;-75
2023/06/25 06:37:02;;;;;;;3.15;2.95;;;;;;;;;;5110422;28;20201;-74
2023/06/25 06:39:29;;;;;;;3.63;3.33;;;;;;;;;;5090600;28;20731;-75
2023/06/25 06:41:56;;;;;;;3.38;3.08;;;;;;;;;;5118491;27;20617;-74
2023/06/25 06:44:23;;;;;;;2.83;2.72;;;;;;;;;;5129495;27;20205;-74
2023/06/25 06:46:51;;;;;;;3.25;3.05;;;;;;;;;;5108872;28;20289;-74
2023/06/25 06:49:19;;;;;;;3.15;2.95;;;;;;;;;;5109592;28;20202;-74
2023/06/25 06:51:46;;;;;;;3.13;2.92;;;;;;;;;;5109467;28;20217;-74
2023/06/25 06:54:13;;;;;;;3.17;2.97;;;;;;;;;;5108484;28;20209;-74
2023/06/25 06:56:40;;;;;;;3.33;3.13;;;;;;;;;;5106980;28;20209;-74
2023/06/25 06:59:07;;;;;;;3.50;3.20;;;;;;;;;;5109122;28;20302;-74
2023/06/25 07:01:34;;;;;;;3.30;3.10;;;;;;;;;;5109233;28;20213;-75
2023/06/25 07:04:01;;;;;;;2.70;2.60;;;;;;;;;;5107371;28;20401;-74
2023/06/25 07:06:30;;;;;;;2.67;2.58;;;;;;;;;;5109353;28;20672;-74
2023/06/25 07:08:57;;;;;;;3.10;3.00;;;;;;;;;;5109377;28;20206;-83
2023/06/25 07:11:24;;;;;;;3.30;3.10;;;;;;;;;;5109327;28;20719;-68
2023/06/25 07:13:51;;;;;;;3.30;3.10;;;;;;;;;;5102805;28;20210;-68
2023/06/25 07:16:18;;;;;;;3.15;2.95;;;;;;;;;;5088641;28;20626;-69
2023/06/25 07:18:45;;;;;;;2.78;2.58;;;;;;;;;;5089020;28;20271;-67
2023/06/25 07:21:12;;;;;;;3.20;2.97;;;;;;;;;;5088720;28;20743;-68
2023/06/25 07:23:40;;;;;;;2.97;2.78;;;;;;;;;;5089604;28;20217;-67
2023/06/25 07:26:07;;;;;;;3.53;3.28;;;;;;;;;;5095490;28;20209;-74
2023/06/25 07:28:34;;;;;;;2.88;2.78;;;;;;;;;;5100298;28;20669;-73
2023/06/25 07:31:01;;;;;;;3.30;3.10;;;;;;;;;;5108753;28;20254;-78
2023/06/25 07:33:29;;;;;;;3.00;2.80;;;;;;;;;;5090868;28;20681;-79
2023/06/25 07:35:56;;;;;;;3.20;3.00;;;;;;;;;;5094331;28;20210;-78
2023/06/25 07:38:23;;;;;;;3.03;2.83;;;;;;;;;;5088975;28;20259;-80
2023/06/25 07:40:51;;;;;;;3.42;3.22;;;;;;;;;;5089533;28;20209;-81
2023/06/25 07:43:18;;;;;;;5.65;3.55;;;;;;;;;;5087670;28;20199;-75
2023/06/25 07:45:45;;;;;;;3.03;2.83;;;;;;;;;;5107615;28;20814;-67
2023/06/25 07:48:12;;;;;;;3.22;3.05;;;;;;;;;;5092906;28;20202;-74
2023/06/25 07:50:39;;;;;;;2.40;2.38;;;;;;;;;;5104254;28;20262;-73
2023/06/25 07:53:06;;;;;;;5.47;2.72;;;;;;;;;;5108758;28;20205;-73
2023/06/25 07:55:39;;;;;;;3.22;2.65;;;;;;;;;;5108891;28;20719;-75
2023/06/25 07:58:08;;;;;;;2.78;2.67;;;;;;;;;;5108594;28;20233;-75
2023/06/25 08:00:35;;;;;;;3.20;2.88;;;;;;;;;;5107991;28;20213;-74
2023/06/25 08:03:02;;;;;;;2.83;2.72;;;;;;;;;;5106428;28;20267;-73
2023/06/25 08:05:29;;;;;;;2.97;2.78;;;;;;;;;;5108397;28;20245;-72
2023/06/25 08:07:57;;;;;;;3.33;3.13;;;;;;;;;;5108483;28;20679;-72
2023/06/25 08:10:24;;;;;;;2.65;2.55;;;;;;;;;;5102711;28;20257;-74
2023/06/25 08:12:52;;;;;;;2.92;2.78;;;;;;;;;;5100639;28;20241;-73
2023/06/25 08:15:21;;;;;;;3.67;2.80;;;;;;;;;;5101735;28;20198;-74
2023/06/25 08:17:48;;;;;;;3.03;2.88;;;;;;;;;;5094792;28;20234;-74
2023/06/25 08:20:15;;;;;;;3.40;3.10;;;;;;;;;;5091081;28;20303;-76
2023/06/25 08:22:42;;;;;;;3.10;3.00;;;;;;;;;;5085008;28;20573;-76
2023/06/25 08:25:19;;;;;;;3.03;2.88;;;;;;;;;;5086283;28;20263;-76
2023/06/25 08:27:46;;;;;;;2.97;2.78;;;;;;;;;;5088072;28;20212;-76
2023/06/25 08:30:13;;;;;;;3.10;3.00;;;;;;;;;;5088026;28;20203;-76
2023/06/25 08:32:42;;;;;;;3.03;2.90;;;;;;;;;;5088562;28;20671;-76
2023/06/25 08:35:09;;;;;;;2.95;2.75;;;;;;;;;;5103913;28;20210;-79
2023/06/25 08:37:36;;;;;;;2.80;2.70;;;;;;;;;;5108244;28;20610;-76
2023/06/25 08:40:03;;;;;;;2.88;2.78;;;;;;;;;;5108195;28;20229;-77
2023/06/25 08:42:31;;;;;;;2.88;2.78;;;;;;;;;;5107972;28;20645;-77
2023/06/25 08:44:58;;;;;;;3.10;3.00;;;;;;;;;;5107566;28;20379;-77
2023/06/25 08:47:27;;;;;;;2.72;2.60;;;;;;;;;;5108053;28;20209;-76
2023/06/25 08:49:55;;;;;;;2.50;2.40;;;;;;;;;;5108105;28;20743;-76
2023/06/25 08:52:24;;;;;;;2.55;2.40;;;;;;;;;;5106710;28;20205;-75
2023/06/25 08:54:52;;;;;;;2.63;2.53;;;;;;;;;;5109148;28;20329;-74
2023/06/25 08:57:19;;;;;;;2.50;2.40;;;;;;;;;;5111904;28;20209;-75
2023/06/25 08:59:46;;;;;;;2.30;2.20;;;;;;;;;;5104791;28;20969;-75
2023/06/25 09:02:13;;;;;;;2.63;2.53;;;;;;;;;;5101015;28;20289;-75
2023/06/25 09:04:40;;;;;;;2.78;2.67;;;;;;;;;;5089469;28;20269;-76
2023/06/25 09:07:09;;;;;;;3.78;2.75;;;;;;;;;;5090514;28;20202;-75
2023/06/25 09:09:36;;;;;;;2.75;2.55;;;;;;;;;;5090868;28;20403;-75
2023/06/25 09:12:03;;;;;;;2.63;2.45;;;;;;;;;;5090588;28;20574;-75
2023/06/25 09:14:31;;;;;;;2.38;2.28;;;;;;;;;;5090518;28;20294;-75
2023/06/25 09:16:58;;;;;;;2.47;2.38;;;;;;;;;;5085697;28;20218;-75
2023/06/25 09:19:25;;;;;;;2.97;2.83;;;;;;;;;;5096605;28;20228;-75
2023/06/25 09:21:52;;;;;;;2.95;2.85;;;;;;;;;;5110576;28;20229;-75
2023/06/25 09:24:21;;;;;;;2.92;2.67;;;;;;;;;;5111267;28;20205;-75
2023/06/25 09:26:49;;;;;;;2.88;2.70;;;;;;;;;;5096899;28;20218;-74
2023/06/25 09:29:17;;;;;;;2.47;2.38;;;;;;;;;;5090989;28;20217;-75
2023/06/25 09:31:44;;;;;;;2.42;2.33;;;;;;;;;;5103794;28;20212;-76
2023/06/25 09:34:11;;;;;;;2.65;2.55;;;;;;;;;;5109549;28;20209;-75
2023/06/25 09:36:39;;;;;;;2.67;2.58;;;;;;;;;;5110943;28;20220;-74
2023/06/25 09:39:06;;;;;;;2.55;2.38;;;;;;;;;;5110952;28;20240;-75
2023/06/25 09:41:36;;;;;;;2.92;2.50;;;;;;;;;;5108141;28;20232;-73
2023/06/25 09:44:03;;;;;;;3.88;2.40;;;;;;;;;;5110834;28;20212;-74
2023/06/25 09:46:31;;;;;;;2.83;2.45;;;;;;;;;;5104226;28;20202;-76
2023/06/25 09:49:00;;;;;;;2.40;2.30;;;;;;;;;;5090270;28;20584;-76
2023/06/25 09:51:31;;;;;;;2.20;2.10;;;;;;;;;;5103879;28;20210;-75
2023/06/25 09:53:59;;;;;;;2.60;2.40;;;;;;;;;;5104711;28;20212;-74
2023/06/25 09:56:26;;;;;;;5.40;2.55;;;;;;;;;;5099210;28;20201;-75
2023/06/25 09:58:55;;;;;;;2.42;2.33;;;;;;;;;;5110239;28;20639;-75
2023/06/25 10:01:22;;;;;;;2.53;2.35;;;;;;;;;;5110264;28;20201;-75
2023/06/25 10:03:49;;;;;;;2.05;1.95;;;;;;;;;;5110494;28;20800;-75
2023/06/25 10:06:16;;;;;;;2.25;2.15;;;;;;;;;;5109585;28;20209;-74
2023/06/25 10:08:43;;;;;;;2.33;2.22;;;;;;;;;;5109929;28;20205;-76
2023/06/25 10:11:10;;;;;;;2.95;2.17;;;;;;;;;;5109592;28;20570;-75
2023/06/25 10:13:44;;;;;;;2.05;1.95;;;;;;;;;;5108425;28;20213;-75
2023/06/25 10:16:18;;;;;;;2.22;2.10;;;;;;;;;;5110130;28;20680;-75
2023/06/25 10:18:46;;;;;;;2.20;2.20;;;;;;;;;;5110261;28;20231;-74
2023/06/25 10:21:19;;;;;;;2.40;2.30;;;;;;;;;;5090860;28;20622;-75
2023/06/25 10:23:54;;;;;;;3.42;1.92;;;;;;;;;;5090810;28;20229;-75
2023/06/25 10:26:26;;;;;;;2.10;2.00;;;;;;;;;;5089635;28;20298;-74
2023/06/25 10:28:53;;;;;;;2.13;1.98;;;;;;;;;;5089953;28;20263;-76
2023/06/25 10:31:21;;;;;;;2.20;2.10;;;;;;;;;;5089543;28;20531;-75
2023/06/25 10:33:48;;;;;;;2.38;2.17;;;;;;;;;;5089629;28;20697;-76
2023/06/25 10:36:16;;;;;;;2.10;2.00;;;;;;;;;;5089811;28;20255;-75
2023/06/25 10:38:43;;;;;;;2.30;2.20;;;;;;;;;;5089468;28;20570;-76
2023/06/25 10:41:10;;;;;;;2.17;2.08;;;;;;;;;;5102357;28;20224;-74
2023/06/25 10:43:38;;;;;;;2.53;2.33;;;;;;;;;;5105049;28;20275;-76
2023/06/25 10:46:05;;;;;;;2.40;2.30;;;;;;;;;;5087309;28;20206;-74
2023/06/25 10:48:34;;;;;;;2.22;2.13;;;;;;;;;;5088741;28;20566;-75
2023/06/25 10:51:01;;;;;;;2.47;2.38;;;;;;;;;;5088408;28;20509;-70
2023/06/25 10:53:28;;;;;;;2.35;2.25;;;;;;;;;;5089385;28;20201;-69
2023/06/25 10:55:55;;;;;;;2.55;2.42;;;;;;;;;;5108431;28;20198;-69
2023/06/25 10:58:23;;;;;;;2.10;2.00;;;;;;;;;;5097425;28;20208;-69
2023/06/25 11:00:54;;;;;;;2.22;2.22;;;;;;;;;;5089026;28;20809;-69
2023/06/25 11:03:21;;;;;;;2.55;2.53;;;;;;;;;;5088865;28;20214;-70
2023/06/25 11:05:50;;;;;;;2.15;2.05;;;;;;;;;;5088987;28;20206;-70
2023/06/25 11:08:17;;;;;;;2.53;2.42;;;;;;;;;;5089213;28;20206;-69
2023/06/25 11:10:44;;;;;;;2.30;2.20;;;;;;;;;;5088910;28;20206;-71
2023/06/25 11:13:12;;;;;;;2.50;2.40;;;;;;;;;;5088923;28;20206;-70
2023/06/25 11:15:40;;;;;;;2.97;2.78;;;;;;;;;;5089015;28;20267;-71
2023/06/25 11:18:08;;;;;;;2.00;1.95;;;;;;;;;;5088888;28;20256;-75
2023/06/25 11:20:36;;;;;;;2.78;2.67;;;;;;;;;;5098500;28;20249;-81
2023/06/25 11:23:04;;;;;;;2.80;2.60;;;;;;;;;;5103911;28;20198;-82
2023/06/25 11:25:32;;;;;;;2.75;2.65;;;;;;;;;;5104143;28;20262;-80
2023/06/25 11:28:03;;;;;;;2.38;2.30;;;;;;;;;;5108829;28;20796;-81
2023/06/25 11:30:30;;;;;;;2.50;2.30;;;;;;;;;;5108832;28;20197;-80
2023/06/25 11:33:08;;;;;;;2.63;2.53;;;;;;;;;;5108537;28;20212;-83
2023/06/25 11:35:42;;;;;;;2.58;2.47;;;;;;;;;;5109122;28;20295;-80
2023/06/25 11:38:11;;;;;;;2.58;2.47;;;;;;;;;;5099906;28;20209;-82
2023/06/25 11:40:39;;;;;;;2.60;2.40;;;;;;;;;;5090973;28;20326;-83
2023/06/25 11:43:09;;;;;;;2.80;2.58;;;;;;;;;;5102876;28;20292;-81
2023/06/25 11:45:40;;;;;;;2.60;2.50;;;;;;;;;;5108301;28;20209;-83
2023/06/25 11:48:13;;;;;;;2.28;2.17;;;;;;;;;;5108472;28;20683;-83
2023/06/25 11:50:40;;;;;;;3.90;2.42;;;;;;;;;;5088497;28;20683;-80
2023/06/25 11:53:07;;;;;;;2.80;2.60;;;;;;;;;;5102122;28;20244;-81
2023/06/25 11:55:36;;;;;;;2.25;2.15;;;;;;;;;;5107959;28;20201;-79
2023/06/25 11:58:03;;;;;;;2.65;2.55;;;;;;;;;;5108620;28;20209;-81
2023/06/25 12:00:30;;;;;;;2.58;2.25;;;;;;;;;;5108548;28;20228;-82
2023/06/25 12:02:57;;;;;;;2.40;2.30;;;;;;;;;;5107768;28;20689;-79
2023/06/25 12:05:24;;;;;;;2.20;2.00;;;;;;;;;;5108409;28;20309;-79
2023/06/25 12:07:51;;;;;;;2.55;2.08;;;;;;;;;;5108561;28;20670;-83
2023/06/25 12:10:18;;;;;;;2.28;2.17;;;;;;;;;;5108267;28;20204;-79
2023/06/25 12:12:47;;;;;;;2.17;2.08;;;;;;;;;;5108333;28;20209;-80
2023/06/25 12:15:14;;;;;;;1.95;1.95;;;;;;;;;;5108264;28;20270;-81
2023/06/25 12:17:42;;;;;;;2.30;2.20;;;;;;;;;;5108364;28;20205;-81
2023/06/25 12:20:10;;;;;;;2.30;2.20;;;;;;;;;;5103590;28;20304;-80
2023/06/25 12:22:37;;;;;;;2.10;2.00;;;;;;;;;;5087837;28;20233;-80
2023/06/25 12:25:04;;;;;;;2.00;1.98;;;;;;;;;;5099440;28;20266;-80
2023/06/25 12:27:31;;;;;;;2.40;2.30;;;;;;;;;;5094274;28;20211;-79
2023/06/25 12:29:59;;;;;;;2.30;2.20;;;;;;;;;;5103179;28;20202;-80
2023/06/25 12:32:26;;;;;;;2.35;2.25;;;;;;;;;;5112273;28;20258;-79
2023/06/25 12:34:53;;;;;;;2.72;2.33;;;;;;;;;;5110286;28;20671;-80
2023/06/25 12:37:20;;;;;;;2.53;2.17;;;;;;;;;;5111447;28;20216;-80
2023/06/25 12:39:48;;;;;;;2.25;2.15;;;;;;;;;;5112218;28;20244;-80
2023/06/25 12:42:15;;;;;;;2.35;2.25;;;;;;;;;;5112205;28;20208;-80
2023/06/25 12:44:42;;;;;;;2.47;2.20;;;;;;;;;;5110405;28;20209;-81
2023/06/25 12:47:10;;;;;;;1.95;1.95;;;;;;;;;;5103641;28;20209;-81
2023/06/25 12:49:37;;;;;;;2.42;2.33;;;;;;;;;;5111876;28;20213;-81
2023/06/25 12:52:05;;;;;;;2.30;2.20;;;;;;;;;;5112141;28;20562;-81
2023/06/25 12:54:32;;;;;;;2.25;2.15;;;;;;;;;;5112076;28;20359;-80
2023/06/25 12:56:59;;;;;;;2.30;2.20;;;;;;;;;;5097051;28;20210;-80
2023/06/25 12:59:26;;;;;;;2.58;2.22;;;;;;;;;;5091277;28;20220;-80
2023/06/25 13:01:56;;;;;;;2.50;2.33;;;;;;;;;;5091486;28;20213;-81
2023/06/25 13:04:24;;;;;;;2.20;2.10;;;;;;;;;;5102644;28;20237;-79
2023/06/25 13:06:51;;;;;;;2.10;2.10;;;;;;;;;;5111620;28;20213;-80
2023/06/25 13:09:18;;;;;;;2.17;2.08;;;;;;;;;;5111853;28;20282;-80
2023/06/25 13:11:45;;;;;;;2.63;2.42;;;;;;;;;;5106351;28;20536;-80
2023/06/25 13:14:12;;;;;;;2.33;2.22;;;;;;;;;;5107398;28;20281;-79
2023/06/25 13:16:39;;;;;;;2.13;2.03;;;;;;;;;;5109492;28;20508;-80
2023/06/25 13:19:06;;;;;;;2.15;2.05;;;;;;;;;;5111088;28;20208;-71
2023/06/25 13:21:35;;;;;;;2.10;2.00;;;;;;;;;;5117608;28;20229;-81
2023/06/25 13:24:02;;;;;;;2.05;1.95;;;;;;;;;;5090805;28;20915;-82
2023/06/25 13:26:29;;;;;;;1.95;1.85;;;;;;;;;;5090596;28;20233;-81
2023/06/25 13:28:56;;;;;;;2.00;1.90;;;;;;;;;;5093162;28;20202;-82
2023/06/25 13:31:23;;;;;;;2.90;2.25;;;;;;;;;;5111224;28;20228;-82
2023/06/25 13:33:50;;;;;;;2.40;2.30;;;;;;;;;;5110973;28;20217;-81
2023/06/25 13:36:17;;;;;;;3.45;2.85;;;;;;;;;;5110702;28;20252;-83
2023/06/25 13:38:47;;;;;;;2.38;2.20;;;;;;;;;;5103830;28;20209;-81
2023/06/25 13:41:14;;;;;;;3.80;3.58;;;;;;;;;;5090149;28;20759;-79
2023/06/25 13:43:41;;;;;;;2.40;2.30;;;;;;;;;;5111339;28;20219;-81
2023/06/25 13:46:08;;;;;;;2.50;2.40;;;;;;;;;;5095046;28;20233;-80
2023/06/25 13:48:35;;;;;;;2.08;1.98;;;;;;;;;;5095235;28;20263;-80
2023/06/25 13:51:02;;;;;;;1.92;1.92;;;;;;;;;;5110640;28;20201;-81
2023/06/25 13:53:29;;;;;;;2.50;2.30;;;;;;;;;;5110556;28;20217;-80
2023/06/25 13:55:58;;;;;;;2.20;2.00;;;;;;;;;;5108953;28;20667;-81
2023/06/25 13:58:25;;;;;;;1.70;1.60;;;;;;;;;;5110728;28;20220;-82
2023/06/25 14:00:52;;;;;;;5.05;2.25;;;;;;;;;;5109642;28;20229;-80
2023/06/25 14:03:19;;;;;;;2.20;2.10;;;;;;;;;;5110236;28;20216;-81
2023/06/25 14:05:46;;;;;;;2.97;2.38;;;;;;;;;;5109117;28;20224;-80
2023/06/25 14:08:13;;;;;;;1.90;1.90;;;;;;;;;;5104965;28;20258;-73
2023/06/25 14:10:42;;;;;;;2.67;2.47;;;;;;;;;;5106141;28;20193;-82
2023/06/25 14:13:10;;;;;;;2.60;2.40;;;;;;;;;;5110738;28;20769;-84
2023/06/25 14:15:37;;;;;;;2.60;2.50;;;;;;;;;;5102872;28;20213;-80
2023/06/25 14:18:05;;;;;;;2.67;2.47;;;;;;;;;;5110067;28;20691;-75
2023/06/25 14:20:32;;;;;;;2.40;2.30;;;;;;;;;;5108866;28;20706;-76
2023/06/25 14:22:59;;;;;;;2.15;2.05;;;;;;;;;;5110567;28;20212;-69
2023/06/25 14:25:26;;;;;;;2.00;1.95;;;;;;;;;;5099409;28;20735;-74
2023/06/25 14:27:53;;;;;;;1.90;1.80;;;;;;;;;;5090324;28;20642;-74
2023/06/25 14:30:22;;;;;;;2.20;2.10;;;;;;;;;;5090049;28;20202;-69
2023/06/25 14:32:49;;;;;;;2.15;2.05;;;;;;;;;;5090906;28;20201;-68
2023/06/25 14:35:16;;;;;;;2.22;2.13;;;;;;;;;;5096006;28;20213;-83
2023/06/25 14:37:43;;;;;;;2.05;1.98;;;;;;;;;;5110361;28;20209;-69
2023/06/25 14:40:10;;;;;;;2.38;2.28;;;;;;;;;;5097491;28;20672;-69
2023/06/25 14:42:37;;;;;;;2.20;2.10;;;;;;;;;;5091627;28;20201;-77
2023/06/25 14:45:05;;;;;;;2.10;2.00;;;;;;;;;;5089261;27;20617;-80